createdAt,value
2018-10-05T00:00:58.191Z,99.99
2018-10-05T00:01:58.063Z,99.99
2018-10-05T00:02:57.935Z,99.99
2018-10-05T00:03:57.807Z,99.99
2018-10-05T00:04:57.685Z,99.99
2018-10-05T00:05:57.557Z,99.99
2018-10-05T00:06:57.429Z,99.99
2018-10-05T00:07:57.303Z,99.99
2018-10-05T00:08:57.176Z,99.99
2018-10-05T00:09:57.050Z,99.99
2018-10-05T00:10:56.923Z,99.99
2018-10-05T00:11:56.795Z,99.99
2018-10-05T00:12:56.682Z,99.99
2018-10-05T00:13:56.543Z,99.99
2018-10-05T00:14:56.415Z,99.99
2018-10-05T00:15:56.295Z,99.99
2018-10-05T00:16:56.165Z,99.99
2018-10-05T00:17:56.045Z,99.99
2018-10-05T00:18:55.907Z,99.99
2018-10-05T00:19:55.783Z,99.99
2018-10-05T00:20:55.657Z,99.99
2018-10-05T00:21:55.529Z,99.99
2018-10-05T00:22:55.400Z,99.99
2018-10-05T00:23:55.276Z,99.99
2018-10-05T00:24:55.148Z,99.99
2018-10-05T00:25:55.023Z,99.99
2018-10-05T00:26:54.896Z,99.99
2018-10-05T00:27:54.770Z,99.99
2018-10-05T00:28:54.643Z,99.99
2018-10-05T00:29:54.516Z,99.99
2018-10-05T00:30:54.392Z,99.99
2018-10-05T00:31:54.268Z,99.99
2018-10-05T00:32:54.137Z,99.99
2018-10-05T00:33:54.007Z,99.99
2018-10-05T00:34:53.883Z,99.99
2018-10-05T00:35:53.756Z,99.99
2018-10-05T00:36:53.633Z,99.99
2018-10-05T00:37:53.504Z,99.99
2018-10-05T00:38:53.375Z,99.99
2018-10-05T00:39:53.249Z,99.99
2018-10-05T00:40:53.121Z,99.99
2018-10-05T00:41:52.994Z,99.99
2018-10-05T00:42:52.868Z,99.99
2018-10-05T00:43:52.740Z,99.99
2018-10-05T00:44:52.630Z,99.99
2018-10-05T00:45:52.486Z,99.99
2018-10-05T00:46:52.362Z,99.99
2018-10-05T00:47:52.236Z,99.99
2018-10-05T00:48:52.113Z,99.99
2018-10-05T00:49:51.984Z,99.99
2018-10-05T00:50:51.854Z,99.99
2018-10-05T00:51:51.729Z,99.99
2018-10-05T00:52:51.617Z,99.99
2018-10-05T00:53:51.474Z,99.99
2018-10-05T00:54:51.348Z,99.99
2018-10-05T00:55:51.219Z,99.99
2018-10-05T00:56:51.095Z,99.99
2018-10-05T00:57:50.967Z,99.99
2018-10-05T00:58:50.841Z,99.99
2018-10-05T00:59:50.715Z,99.99
2018-10-05T01:00:50.591Z,99.99
2018-10-05T01:01:50.523Z,99.99
2018-10-05T01:02:50.336Z,99.99
2018-10-05T01:03:50.211Z,99.99
2018-10-05T01:04:50.082Z,99.99
2018-10-05T01:05:49.956Z,99.99
2018-10-05T01:06:49.827Z,99.99
2018-10-05T01:07:49.701Z,99.99
2018-10-05T01:08:49.578Z,99.99
2018-10-05T01:09:49.448Z,99.99
2018-10-05T01:10:49.368Z,99.99
2018-10-05T01:11:49.195Z,99.99
2018-10-05T01:12:49.068Z,99.99
2018-10-05T01:13:48.942Z,99.99
2018-10-05T01:14:48.815Z,99.99
2018-10-05T01:15:48.690Z,99.99
2018-10-05T01:16:48.561Z,99.99
2018-10-05T01:17:48.432Z,99.99
2018-10-05T01:18:48.312Z,99.99
2018-10-05T01:19:48.180Z,99.99
2018-10-05T01:20:48.075Z,99.99
2018-10-05T01:21:47.925Z,99.99
2018-10-05T01:22:47.802Z,99.99
2018-10-05T01:23:47.674Z,99.99
2018-10-05T01:24:47.603Z,99.99
2018-10-05T01:25:47.418Z,99.99
2018-10-05T01:26:47.296Z,99.99
2018-10-05T01:27:47.167Z,99.99
2018-10-05T01:28:47.041Z,99.99
2018-10-05T01:29:46.914Z,99.99
2018-10-05T01:30:46.784Z,99.99
2018-10-05T01:31:46.660Z,99.99
2018-10-05T01:32:46.534Z,99.99
2018-10-05T01:33:46.406Z,99.99
2018-10-05T01:34:46.281Z,99.99
2018-10-05T01:35:46.152Z,99.99
2018-10-05T01:36:46.026Z,99.99
2018-10-05T01:37:45.898Z,99.99
2018-10-05T01:38:45.846Z,99.99
2018-10-05T01:39:45.646Z,99.99
2018-10-05T01:40:45.519Z,99.99
2018-10-05T01:41:45.399Z,99.99
2018-10-05T01:42:45.265Z,99.99
2018-10-05T01:43:45.141Z,99.99
2018-10-05T01:44:45.011Z,99.99
2018-10-05T01:45:44.890Z,99.99
2018-10-05T01:46:44.759Z,99.99
2018-10-05T01:47:44.634Z,99.99
2018-10-05T01:48:44.504Z,99.99
2018-10-05T01:49:44.378Z,99.99
2018-10-05T01:50:44.251Z,99.99
2018-10-05T01:51:44.124Z,99.99
2018-10-05T01:52:43.997Z,99.99
2018-10-05T01:53:43.869Z,99.99
2018-10-05T01:54:43.743Z,99.99
2018-10-05T01:55:43.618Z,99.99
2018-10-05T01:56:43.493Z,99.99
2018-10-05T01:57:43.364Z,99.99
2018-10-05T01:58:43.235Z,99.99
2018-10-05T01:59:43.109Z,99.99
2018-10-05T02:00:42.983Z,99.99
2018-10-05T02:01:42.878Z,99.99
2018-10-05T02:02:42.791Z,99.99
2018-10-05T02:03:42.602Z,99.99
2018-10-05T02:04:42.476Z,99.99
2018-10-05T02:05:42.353Z,99.99
2018-10-05T02:06:42.225Z,99.99
2018-10-05T02:07:42.097Z,99.99
2018-10-05T02:08:41.969Z,99.99
2018-10-05T02:09:41.844Z,99.99
2018-10-05T02:10:41.715Z,99.99
2018-10-05T02:11:41.590Z,99.99
2018-10-05T02:12:41.463Z,99.99
2018-10-05T02:13:41.333Z,99.99
2018-10-05T02:14:41.208Z,99.99
2018-10-05T02:15:41.083Z,99.99
2018-10-05T02:16:40.954Z,99.99
2018-10-05T02:17:40.827Z,99.99
2018-10-05T02:18:40.700Z,99.99
2018-10-05T02:19:40.573Z,99.99
2018-10-05T02:20:40.448Z,99.99
2018-10-05T02:21:40.320Z,99.99
2018-10-05T02:22:40.192Z,99.99
2018-10-05T02:23:40.072Z,99.99
2018-10-05T02:24:39.954Z,99.99
2018-10-05T02:25:39.813Z,99.99
2018-10-05T02:26:39.691Z,99.99
2018-10-05T02:27:39.632Z,99.99
2018-10-05T02:28:39.433Z,99.99
2018-10-05T02:29:39.307Z,99.99
2018-10-05T02:30:39.177Z,99.99
2018-10-05T02:31:39.054Z,99.99
2018-10-05T02:32:38.925Z,99.99
2018-10-05T02:33:38.802Z,99.99
2018-10-05T02:34:38.670Z,99.99
2018-10-05T02:35:38.545Z,99.99
2018-10-05T02:36:38.418Z,99.99
2018-10-05T02:37:38.292Z,99.99
2018-10-05T02:38:38.165Z,99.99
2018-10-05T02:39:38.038Z,99.99
2018-10-05T02:40:37.911Z,99.99
2018-10-05T02:41:37.839Z,99.99
2018-10-05T02:42:37.657Z,99.99
2018-10-05T02:43:37.530Z,99.99
2018-10-05T02:44:37.404Z,99.99
2018-10-05T02:45:37.276Z,99.99
2018-10-05T02:46:37.149Z,99.99
2018-10-05T02:47:37.028Z,99.99
2018-10-05T02:48:36.896Z,99.99
2018-10-05T02:49:36.770Z,99.99
2018-10-05T02:50:36.641Z,99.99
2018-10-05T02:51:36.514Z,99.99
2018-10-05T02:52:36.387Z,99.99
2018-10-05T02:53:36.260Z,99.99
2018-10-05T02:54:36.133Z,99.99
2018-10-05T02:55:36.015Z,99.99
2018-10-05T02:56:35.880Z,99.99
2018-10-05T02:57:35.754Z,99.99
2018-10-05T02:58:35.625Z,99.99
2018-10-05T02:59:35.504Z,99.99
2018-10-05T03:00:35.380Z,99.99
2018-10-05T03:01:35.245Z,99.99
2018-10-05T03:02:35.117Z,99.99
2018-10-05T03:03:34.994Z,99.99
2018-10-05T03:04:34.871Z,99.99
2018-10-05T03:05:34.743Z,99.99
2018-10-05T03:06:34.616Z,99.99
2018-10-05T03:07:34.483Z,99.99
2018-10-05T03:08:34.356Z,99.99
2018-10-05T03:09:34.230Z,99.99
2018-10-05T03:10:34.101Z,99.99
2018-10-05T03:11:33.975Z,99.99
2018-10-05T03:12:33.850Z,99.99
2018-10-05T03:13:33.720Z,99.99
2018-10-05T03:14:33.602Z,99.99
2018-10-05T03:15:33.468Z,99.99
2018-10-05T03:16:33.341Z,99.99
2018-10-05T03:17:33.215Z,99.99
2018-10-05T03:18:33.087Z,99.99
2018-10-05T03:19:32.961Z,99.99
2018-10-05T03:20:32.834Z,99.99
2018-10-05T03:21:32.707Z,99.99
2018-10-05T03:22:32.581Z,99.99
2018-10-05T03:23:32.454Z,99.99
2018-10-05T03:24:32.326Z,99.99
2018-10-05T03:25:32.199Z,99.99
2018-10-05T03:26:32.072Z,99.99
2018-10-05T03:27:31.947Z,99.99
2018-10-05T03:28:31.825Z,99.99
2018-10-05T03:29:31.691Z,99.99
2018-10-05T03:30:31.565Z,99.99
2018-10-05T03:31:31.437Z,99.99
2018-10-05T03:32:31.308Z,99.99
2018-10-05T03:33:31.181Z,99.99
2018-10-05T03:34:31.054Z,99.99
2018-10-05T03:35:30.931Z,99.99
2018-10-05T03:36:30.801Z,99.99
2018-10-05T03:37:30.673Z,99.99
2018-10-05T03:38:30.546Z,99.99
2018-10-05T03:39:30.421Z,99.99
2018-10-05T03:40:30.295Z,99.99
2018-10-05T03:41:30.167Z,99.99
2018-10-05T03:42:30.038Z,99.99
2018-10-05T03:43:29.921Z,99.99
2018-10-05T03:44:29.786Z,99.99
2018-10-05T03:45:29.664Z,99.99
2018-10-05T03:46:29.535Z,99.99
2018-10-05T03:47:29.406Z,99.99
2018-10-05T03:48:29.279Z,99.99
2018-10-05T03:49:29.151Z,99.99
2018-10-05T03:50:29.025Z,99.99
2018-10-05T03:51:28.897Z,99.99
2018-10-05T03:52:28.772Z,99.99
2018-10-05T03:53:28.644Z,99.99
2018-10-05T03:54:28.516Z,99.99
2018-10-05T03:55:28.397Z,99.99
2018-10-05T03:56:28.272Z,99.99
2018-10-05T03:57:28.135Z,99.99
2018-10-05T03:58:28.008Z,99.99
2018-10-05T03:59:27.889Z,99.99
2018-10-05T04:00:27.755Z,99.99
2018-10-05T04:01:27.628Z,99.99
2018-10-05T04:02:27.500Z,99.99
2018-10-05T04:03:27.374Z,99.99
2018-10-05T04:04:27.249Z,99.99
2018-10-05T04:05:27.119Z,99.99
2018-10-05T04:06:26.997Z,99.99
2018-10-05T04:07:26.868Z,99.99
2018-10-05T04:08:26.741Z,99.99
2018-10-05T04:09:26.612Z,99.99
2018-10-05T04:10:26.495Z,99.99
2018-10-05T04:11:26.370Z,99.99
2018-10-05T04:12:26.232Z,99.99
2018-10-05T04:13:26.103Z,99.99
2018-10-05T04:14:25.978Z,99.99
2018-10-05T04:15:25.850Z,99.99
2018-10-05T04:16:25.725Z,99.99
2018-10-05T04:17:25.597Z,99.99
2018-10-05T04:18:25.471Z,99.99
2018-10-05T04:19:25.344Z,99.99
2018-10-05T04:20:25.218Z,99.99
2018-10-05T04:21:25.090Z,99.99
2018-10-05T04:22:24.965Z,99.99
2018-10-05T04:23:24.854Z,99.99
2018-10-05T04:24:24.716Z,99.99
2018-10-05T04:25:24.588Z,99.99
2018-10-05T04:26:24.455Z,99.99
2018-10-05T04:27:24.419Z,99.99
2018-10-05T04:28:24.203Z,99.99
2018-10-05T04:29:24.075Z,99.99
2018-10-05T04:30:23.953Z,99.99
2018-10-05T04:31:23.823Z,99.99
2018-10-05T04:32:23.699Z,99.99
2018-10-05T04:33:23.589Z,99.99
2018-10-05T04:34:23.439Z,99.99
2018-10-05T04:35:23.384Z,99.99
2018-10-05T04:36:23.187Z,99.99
2018-10-05T04:37:23.056Z,99.99
2018-10-05T04:38:22.931Z,99.99
2018-10-05T04:39:22.836Z,99.99
2018-10-05T04:40:22.679Z,99.99
2018-10-05T04:41:22.634Z,99.99
2018-10-05T04:42:22.430Z,99.99
2018-10-05T04:43:22.294Z,99.99
2018-10-05T04:44:22.170Z,99.99
2018-10-05T04:45:22.040Z,99.99
2018-10-05T04:46:21.918Z,99.99
2018-10-05T04:47:21.789Z,99.99
2018-10-05T04:48:21.659Z,99.99
2018-10-05T04:49:21.575Z,99.99
2018-10-05T04:50:21.408Z,99.99
2018-10-05T04:51:21.279Z,99.99
2018-10-05T04:52:21.155Z,99.99
2018-10-05T04:53:21.024Z,99.99
2018-10-05T04:54:20.896Z,99.99
2018-10-05T04:55:20.772Z,99.99
2018-10-05T04:56:20.642Z,99.99
2018-10-05T04:57:20.516Z,99.99
2018-10-05T04:58:20.389Z,99.99
2018-10-05T04:59:20.266Z,99.99
2018-10-05T05:00:20.135Z,99.99
2018-10-05T05:01:20.010Z,99.99
2018-10-05T05:02:19.879Z,99.99
2018-10-05T05:03:19.790Z,99.99
2018-10-05T05:04:19.628Z,99.99
2018-10-05T05:05:19.499Z,99.99
2018-10-05T05:06:19.375Z,99.99
2018-10-05T05:07:19.244Z,99.99
2018-10-05T05:08:19.118Z,99.99
2018-10-05T05:09:18.990Z,99.99
2018-10-05T05:10:18.862Z,99.99
2018-10-05T05:11:18.737Z,99.99
2018-10-05T05:12:18.707Z,99.99
2018-10-05T05:13:18.483Z,99.99
2018-10-05T05:14:18.355Z,99.99
2018-10-05T05:15:18.226Z,99.99
2018-10-05T05:16:18.099Z,99.99
2018-10-05T05:17:17.971Z,99.99
2018-10-05T05:18:17.844Z,99.99
2018-10-05T05:19:17.715Z,99.99
2018-10-05T05:20:17.590Z,99.99
2018-10-05T05:21:17.461Z,99.99
2018-10-05T05:22:17.333Z,99.99
2018-10-05T05:23:17.206Z,99.99
2018-10-05T05:24:17.082Z,99.99
2018-10-05T05:25:16.955Z,99.99
2018-10-05T05:26:16.825Z,99.99
2018-10-05T05:27:16.705Z,99.99
2018-10-05T05:28:16.572Z,99.99
2018-10-05T05:29:16.443Z,99.99
2018-10-05T05:30:16.315Z,99.99
2018-10-05T05:31:16.192Z,99.99
2018-10-05T05:32:16.062Z,99.99
2018-10-05T05:33:15.935Z,99.99
2018-10-05T05:34:15.807Z,99.99
2018-10-05T05:35:15.681Z,99.99
2018-10-05T05:36:15.554Z,99.99
2018-10-05T05:37:15.426Z,99.99
2018-10-05T05:38:15.298Z,99.99
2018-10-05T05:39:15.172Z,99.99
2018-10-05T05:40:15.063Z,99.99
2018-10-05T05:41:14.919Z,99.99
2018-10-05T05:42:14.793Z,99.99
2018-10-05T05:43:14.663Z,99.99
2018-10-05T05:44:14.535Z,99.99
2018-10-05T05:45:14.408Z,99.99
2018-10-05T05:46:14.284Z,99.99
2018-10-05T05:47:14.152Z,99.99
2018-10-05T05:48:14.027Z,99.99
2018-10-05T05:49:13.896Z,99.99
2018-10-05T05:50:13.770Z,99.99
2018-10-05T05:51:13.643Z,99.99
2018-10-05T05:52:13.517Z,99.99
2018-10-05T05:53:13.390Z,99.99
2018-10-05T05:54:13.283Z,99.99
2018-10-05T05:55:13.135Z,99.99
2018-10-05T05:56:13.008Z,99.99
2018-10-05T05:57:12.878Z,99.99
2018-10-05T05:58:12.752Z,99.99
2018-10-05T05:59:12.624Z,99.99
2018-10-05T06:00:12.506Z,99.99
2018-10-05T06:01:12.426Z,99.99
2018-10-05T06:02:12.244Z,99.99
2018-10-05T06:03:12.120Z,99.99
2018-10-05T06:04:11.989Z,99.99
2018-10-05T06:05:11.863Z,99.99
2018-10-05T06:06:11.734Z,99.99
2018-10-05T06:07:11.606Z,99.99
2018-10-05T06:08:11.518Z,99.99
2018-10-05T06:09:11.353Z,99.99
2018-10-05T06:10:11.226Z,99.99
2018-10-05T06:11:11.101Z,99.99
2018-10-05T06:12:10.972Z,99.99
2018-10-05T06:13:10.844Z,99.99
2018-10-05T06:14:10.714Z,99.99
2018-10-05T06:15:10.595Z,99.99
2018-10-05T06:16:10.559Z,99.99
2018-10-05T06:17:10.334Z,99.99
2018-10-05T06:18:10.207Z,99.99
2018-10-05T06:19:10.080Z,99.99
2018-10-05T06:20:09.953Z,99.99
2018-10-05T06:21:09.826Z,99.99
2018-10-05T06:22:09.854Z,99.99
2018-10-05T06:23:09.571Z,99.99
2018-10-05T06:24:09.448Z,99.99
2018-10-05T06:25:09.316Z,99.99
2018-10-05T06:26:09.192Z,99.99
2018-10-05T06:27:09.117Z,99.99
2018-10-05T06:28:08.940Z,99.99
2018-10-05T06:29:08.809Z,99.99
2018-10-05T06:30:08.680Z,99.99
2018-10-05T06:31:08.564Z,99.99
2018-10-05T06:32:08.426Z,99.99
2018-10-05T06:33:08.319Z,99.99
2018-10-05T06:34:08.172Z,99.99
2018-10-05T06:35:08.045Z,99.99
2018-10-05T06:36:07.924Z,99.99
2018-10-05T06:37:07.792Z,99.99
2018-10-05T06:38:07.679Z,99.99
2018-10-05T06:39:07.599Z,99.99
2018-10-05T06:40:07.407Z,99.99
2018-10-05T06:41:07.280Z,99.99
2018-10-05T06:42:07.191Z,99.99
2018-10-05T06:43:07.028Z,99.99
2018-10-05T06:44:06.899Z,99.99
2018-10-05T06:45:06.773Z,99.99
2018-10-05T06:46:06.644Z,99.99
2018-10-05T06:47:06.518Z,99.99
2018-10-05T06:48:06.390Z,99.99
2018-10-05T06:49:06.266Z,99.99
2018-10-05T06:50:06.137Z,99.99
2018-10-05T06:51:06.009Z,99.99
2018-10-05T06:52:05.886Z,99.32
2018-10-05T06:53:05.769Z,99.99
2018-10-05T06:54:05.630Z,99.99
2018-10-05T06:55:05.506Z,99.75
2018-10-05T06:56:05.378Z,99.84
2018-10-05T06:57:05.252Z,99.65
2018-10-05T06:58:05.128Z,97.70
2018-10-05T06:59:05.003Z,96.36
2018-10-05T07:00:04.876Z,98.27
2018-10-05T07:01:04.749Z,97.85
2018-10-05T07:02:04.622Z,95.37
2018-10-05T07:03:04.498Z,95.08
2018-10-05T07:04:04.373Z,92.50
2018-10-05T07:05:04.246Z,92.03
2018-10-05T07:06:04.122Z,91.74
2018-10-05T07:07:03.994Z,90.12
2018-10-05T07:08:03.944Z,87.35
2018-10-05T07:09:03.747Z,87.26
2018-10-05T07:10:03.619Z,85.25
2018-10-05T07:11:03.500Z,82.68
2018-10-05T07:12:03.372Z,85.06
2018-10-05T07:13:03.245Z,84.53
2018-10-05T07:14:03.122Z,80.72
2018-10-05T07:15:02.996Z,78.62
2018-10-05T07:16:02.873Z,81.33
2018-10-05T07:17:02.804Z,85.44
2018-10-05T07:18:02.624Z,82.00
2018-10-05T07:19:02.503Z,80.38
2018-10-05T07:20:02.386Z,80.09
2018-10-05T07:21:02.253Z,80.19
2018-10-05T07:22:02.148Z,79.23
2018-10-05T07:23:02.008Z,80.22
2018-10-05T07:24:01.879Z,82.42
2018-10-05T07:25:01.756Z,80.84
2018-10-05T07:26:01.631Z,77.30
2018-10-05T07:27:01.510Z,75.30
2018-10-05T07:28:01.387Z,76.00
2018-10-05T07:29:01.261Z,72.85
2018-10-05T07:30:01.137Z,71.32
2018-10-05T07:31:01.013Z,69.41
2018-10-05T07:32:00.896Z,70.84
2018-10-05T07:33:00.768Z,74.66
2018-10-05T07:34:00.644Z,76.00
2018-10-05T07:35:00.528Z,77.34
2018-10-05T07:36:00.403Z,79.73
2018-10-05T07:37:00.330Z,81.16
2018-10-05T07:38:00.156Z,75.43
2018-10-05T07:39:00.031Z,75.34
2018-10-05T07:39:59.910Z,75.81
2018-10-05T07:40:59.784Z,71.80
2018-10-05T07:41:59.663Z,74.38
2018-10-05T07:42:59.561Z,75.71
2018-10-05T07:43:59.420Z,76.77
2018-10-05T07:44:59.301Z,76.77
2018-10-05T07:45:59.178Z,73.99
2018-10-05T07:46:59.052Z,74.04
2018-10-05T07:47:58.929Z,72.47
2018-10-05T07:48:58.807Z,72.98
2018-10-05T07:49:58.685Z,72.41
2018-10-05T07:50:58.561Z,72.79
2018-10-05T07:51:58.528Z,70.30
2018-10-05T07:52:58.316Z,68.87
2018-10-05T07:53:58.195Z,69.15
2018-10-05T07:54:58.072Z,69.15
2018-10-05T07:55:57.950Z,68.10
2018-10-05T07:56:57.828Z,67.56
2018-10-05T07:57:57.770Z,67.94
2018-10-05T07:58:57.583Z,67.94
2018-10-05T07:59:57.465Z,67.14
2018-10-05T08:00:57.341Z,66.47
2018-10-05T08:01:57.220Z,68.68
2018-10-05T08:02:57.099Z,67.63
2018-10-05T08:03:56.972Z,66.86
2018-10-05T08:04:56.852Z,69.35
2018-10-05T08:05:56.731Z,67.72
2018-10-05T08:06:56.607Z,69.48
2018-10-05T08:07:56.487Z,67.66
2018-10-05T08:08:56.362Z,66.80
2018-10-05T08:09:56.240Z,66.22
2018-10-05T08:10:56.120Z,68.33
2018-10-05T08:11:55.997Z,68.33
2018-10-05T08:12:55.882Z,67.18
2018-10-05T08:13:55.753Z,66.89
2018-10-05T08:14:55.632Z,67.47
2018-10-05T08:15:55.510Z,66.03
2018-10-05T08:16:55.387Z,68.17
2018-10-05T08:17:55.266Z,67.31
2018-10-05T08:18:55.145Z,66.19
2018-10-05T08:19:55.026Z,65.81
2018-10-05T08:20:54.916Z,64.28
2018-10-05T08:21:54.779Z,64.37
2018-10-05T08:22:54.659Z,66.29
2018-10-05T08:23:54.537Z,66.58
2018-10-05T08:24:54.416Z,64.56
2018-10-05T08:25:54.295Z,64.66
2018-10-05T08:26:54.192Z,64.37
2018-10-05T08:27:54.070Z,65.33
2018-10-05T08:28:53.930Z,66.16
2018-10-05T08:29:53.809Z,67.98
2018-10-05T08:30:53.692Z,68.78
2018-10-05T08:31:53.571Z,68.21
2018-10-05T08:32:53.445Z,66.71
2018-10-05T08:33:53.348Z,65.17
2018-10-05T08:34:53.206Z,65.78
2018-10-05T08:35:53.088Z,65.78
2018-10-05T08:36:52.964Z,63.67
2018-10-05T08:37:52.842Z,63.26
2018-10-05T08:38:52.722Z,64.50
2018-10-05T08:39:52.704Z,62.87
2018-10-05T08:40:52.478Z,63.06
2018-10-05T08:41:52.358Z,64.12
2018-10-05T08:42:52.239Z,64.50
2018-10-05T08:43:52.118Z,64.31
2018-10-05T08:44:52.010Z,65.08
2018-10-05T08:45:51.922Z,65.11
2018-10-05T08:46:51.759Z,64.92
2018-10-05T08:47:51.638Z,64.25
2018-10-05T08:48:51.514Z,63.57
2018-10-05T08:49:51.394Z,63.86
2018-10-05T08:50:51.279Z,64.15
2018-10-05T08:51:51.230Z,64.43
2018-10-05T08:52:51.035Z,63.38
2018-10-05T08:53:50.915Z,62.71
2018-10-05T08:54:50.797Z,62.55
2018-10-05T08:55:50.678Z,61.94
2018-10-05T08:56:50.552Z,63.19
2018-10-05T08:57:50.433Z,62.90
2018-10-05T08:58:50.314Z,62.55
2018-10-05T08:59:50.202Z,60.92
2018-10-05T09:00:50.072Z,60.63
2018-10-05T09:01:49.955Z,61.02
2018-10-05T09:02:49.835Z,60.85
2018-10-05T09:03:49.716Z,60.05
2018-10-05T09:04:49.599Z,59.89
2018-10-05T09:05:49.500Z,59.32
2018-10-05T09:06:49.358Z,59.25
2018-10-05T09:07:49.235Z,59.16
2018-10-05T09:08:49.113Z,59.34
2018-10-05T09:09:48.994Z,58.67
2018-10-05T09:10:48.874Z,58.20
2018-10-05T09:11:48.762Z,57.68
2018-10-05T09:12:48.636Z,59.03
2018-10-05T09:13:48.516Z,57.97
2018-10-05T09:14:48.398Z,59.25
2018-10-05T09:15:48.278Z,59.25
2018-10-05T09:16:48.157Z,57.84
2018-10-05T09:17:48.102Z,57.26
2018-10-05T09:18:47.921Z,58.67
2018-10-05T09:19:47.801Z,58.87
2018-10-05T09:20:47.680Z,58.03
2018-10-05T09:21:47.560Z,58.13
2018-10-05T09:22:47.443Z,56.40
2018-10-05T09:23:47.325Z,56.68
2018-10-05T09:24:47.202Z,56.88
2018-10-05T09:25:47.098Z,57.55
2018-10-05T09:26:46.966Z,58.15
2018-10-05T09:27:46.847Z,57.51
2018-10-05T09:28:46.725Z,57.13
2018-10-05T09:29:46.607Z,54.99
2018-10-05T09:30:46.669Z,55.37
2018-10-05T09:31:46.374Z,56.14
2018-10-05T09:32:46.252Z,56.93
2018-10-05T09:33:46.134Z,55.23
2018-10-05T09:34:46.016Z,53.21
2018-10-05T09:35:45.895Z,52.25
2018-10-05T09:36:45.775Z,53.31
2018-10-05T09:37:45.665Z,54.17
2018-10-05T09:38:45.542Z,53.40
2018-10-05T09:39:45.421Z,52.32
2018-10-05T09:40:45.302Z,53.38
2018-10-05T09:41:45.184Z,52.70
2018-10-05T09:42:45.066Z,53.78
2018-10-05T09:43:44.948Z,52.61
2018-10-05T09:44:44.843Z,53.86
2018-10-05T09:45:44.714Z,53.66
2018-10-05T09:46:44.594Z,54.63
2018-10-05T09:47:44.476Z,53.98
2018-10-05T09:48:44.356Z,52.92
2018-10-05T09:49:44.239Z,53.02
2018-10-05T09:50:44.123Z,53.21
2018-10-05T09:51:44.039Z,52.80
2018-10-05T09:52:43.908Z,52.77
2018-10-05T09:53:43.767Z,53.74
2018-10-05T09:54:43.650Z,54.89
2018-10-05T09:55:43.530Z,55.11
2018-10-05T09:56:43.414Z,54.72
2018-10-05T09:57:43.292Z,53.78
2018-10-05T09:58:43.181Z,54.27
2018-10-05T09:59:43.144Z,53.21
2018-10-05T10:00:42.937Z,52.44
2018-10-05T10:01:42.820Z,53.88
2018-10-05T10:02:42.701Z,54.65
2018-10-05T10:03:42.584Z,53.21
2018-10-05T10:04:42.466Z,52.34
2018-10-05T10:05:42.350Z,52.15
2018-10-05T10:06:42.237Z,53.11
2018-10-05T10:07:42.111Z,52.15
2018-10-05T10:08:41.992Z,52.08
2018-10-05T10:09:41.874Z,51.72
2018-10-05T10:10:41.758Z,51.62
2018-10-05T10:11:41.643Z,51.62
2018-10-05T10:12:41.522Z,51.75
2018-10-05T10:13:41.413Z,51.75
2018-10-05T10:14:41.296Z,50.98
2018-10-05T10:15:41.168Z,50.98
2018-10-05T10:16:41.050Z,51.53
2018-10-05T10:17:40.938Z,52.42
2018-10-05T10:18:40.819Z,51.72
2018-10-05T10:19:40.698Z,52.56
2018-10-05T10:20:40.584Z,53.91
2018-10-05T10:21:40.531Z,55.19
2018-10-05T10:22:40.373Z,53.84
2018-10-05T10:23:40.229Z,52.97
2018-10-05T10:24:40.112Z,52.87
2018-10-05T10:25:39.993Z,52.78
2018-10-05T10:26:39.876Z,51.82
2018-10-05T10:27:39.820Z,53.07
2018-10-05T10:28:39.697Z,53.55
2018-10-05T10:29:39.524Z,53.96
2018-10-05T10:30:39.408Z,52.61
2018-10-05T10:31:39.295Z,53.58
2018-10-05T10:32:39.175Z,51.65
2018-10-05T10:33:39.087Z,52.87
2018-10-05T10:34:38.950Z,52.69
2018-10-05T10:35:38.823Z,53.77
2018-10-05T10:36:38.765Z,52.33
2018-10-05T10:37:38.587Z,50.59
2018-10-05T10:38:38.471Z,50.98
2018-10-05T10:39:38.354Z,50.95
2018-10-05T10:40:38.235Z,50.85
2018-10-05T10:41:38.130Z,51.14
2018-10-05T10:42:38.073Z,52.91
2018-10-05T10:43:37.884Z,50.59
2018-10-05T10:44:37.765Z,51.17
2018-10-05T10:45:37.651Z,51.17
2018-10-05T10:46:37.533Z,50.21
2018-10-05T10:47:37.417Z,50.52
2018-10-05T10:48:37.303Z,50.62
2018-10-05T10:49:37.179Z,50.45
2018-10-05T10:50:37.063Z,50.42
2018-10-05T10:51:36.949Z,49.34
2018-10-05T10:52:36.826Z,49.73
2018-10-05T10:53:36.712Z,50.88
2018-10-05T10:54:36.592Z,50.59
2018-10-05T10:55:36.478Z,52.04
2018-10-05T10:56:36.358Z,51.36
2018-10-05T10:57:36.241Z,51.58
2018-10-05T10:58:36.123Z,48.66
2018-10-05T10:59:36.006Z,49.34
2018-10-05T11:00:35.911Z,47.51
2018-10-05T11:01:35.772Z,49.34
2018-10-05T11:02:35.653Z,49.37
2018-10-05T11:03:35.537Z,47.41
2018-10-05T11:04:35.474Z,48.76
2018-10-05T11:05:35.299Z,50.49
2018-10-05T11:06:35.183Z,49.32
2018-10-05T11:07:35.078Z,49.02
2018-10-05T11:08:34.945Z,47.58
2018-10-05T11:09:34.827Z,48.64
2018-10-05T11:10:34.709Z,48.76
2018-10-05T11:11:34.592Z,47.39
2018-10-05T11:12:34.474Z,46.62
2018-10-05T11:13:34.356Z,47.97
2018-10-05T11:14:34.237Z,48.83
2018-10-05T11:15:34.124Z,49.15
2018-10-05T11:16:34.001Z,46.78
2018-10-05T11:17:33.885Z,46.14
2018-10-05T11:18:33.765Z,47.58
2018-10-05T11:19:33.654Z,48.16
2018-10-05T11:20:33.527Z,45.92
2018-10-05T11:21:33.411Z,46.50
2018-10-05T11:22:33.293Z,46.01
2018-10-05T11:23:33.174Z,46.98
2018-10-05T11:24:33.055Z,46.78
2018-10-05T11:25:32.938Z,47.77
2018-10-05T11:26:32.819Z,46.91
2018-10-05T11:27:32.699Z,48.74
2018-10-05T11:28:32.579Z,45.65
2018-10-05T11:29:32.471Z,44.98
2018-10-05T11:30:32.348Z,44.89
2018-10-05T11:31:32.229Z,46.23
2018-10-05T11:32:32.110Z,45.07
2018-10-05T11:33:31.992Z,44.79
2018-10-05T11:34:31.871Z,45.56
2018-10-05T11:35:31.753Z,44.31
2018-10-05T11:36:31.632Z,44.69
2018-10-05T11:37:31.516Z,46.15
2018-10-05T11:38:31.397Z,44.49
2018-10-05T11:39:31.284Z,45.17
2018-10-05T11:40:31.158Z,44.69
2018-10-05T11:41:31.041Z,44.28
2018-10-05T11:42:30.923Z,43.23
2018-10-05T11:43:30.805Z,45.05
2018-10-05T11:44:30.684Z,44.65
2018-10-05T11:45:30.565Z,46.28
2018-10-05T11:46:30.529Z,44.53
2018-10-05T11:47:30.331Z,44.14
2018-10-05T11:48:30.211Z,46.55
2018-10-05T11:49:30.094Z,47.63
2018-10-05T11:50:29.977Z,46.95
2018-10-05T11:51:29.854Z,46.88
2018-10-05T11:52:29.806Z,45.92
2018-10-05T11:53:29.616Z,45.44
2018-10-05T11:54:29.501Z,45.73
2018-10-05T11:55:29.380Z,45.44
2018-10-05T11:56:29.263Z,45.36
2018-10-05T11:57:29.144Z,45.75
2018-10-05T11:58:29.022Z,45.97
2018-10-05T11:59:28.906Z,45.97
2018-10-05T12:00:28.786Z,45.48
2018-10-05T12:01:28.667Z,45.48
2018-10-05T12:02:28.570Z,43.73
2018-10-05T12:03:28.430Z,44.52
2018-10-05T12:04:28.312Z,44.90
2018-10-05T12:05:28.193Z,45.10
2018-10-05T12:06:28.074Z,44.32
2018-10-05T12:07:27.956Z,42.59
2018-10-05T12:08:27.839Z,43.85
2018-10-05T12:09:27.719Z,43.29
2018-10-05T12:10:27.603Z,41.94
2018-10-05T12:11:27.481Z,40.37
2018-10-05T12:12:27.363Z,40.57
2018-10-05T12:13:27.244Z,40.97
2018-10-05T12:14:27.129Z,41.55
2018-10-05T12:15:27.009Z,43.00
2018-10-05T12:16:26.889Z,40.30
2018-10-05T12:17:26.894Z,40.69
2018-10-05T12:18:26.655Z,40.30
2018-10-05T12:19:26.535Z,41.55
2018-10-05T12:20:26.414Z,41.72
2018-10-05T12:21:26.307Z,41.63
2018-10-05T12:22:26.178Z,41.92
2018-10-05T12:23:26.064Z,42.42
2018-10-05T12:24:25.950Z,39.70
2018-10-05T12:25:25.833Z,40.37
2018-10-05T12:26:25.751Z,40.20
2018-10-05T12:27:25.589Z,41.05
2018-10-05T12:28:25.473Z,41.46
2018-10-05T12:29:25.354Z,40.37
2018-10-05T12:30:25.234Z,41.34
2018-10-05T12:31:25.124Z,41.41
2018-10-05T12:32:24.997Z,41.30
2018-10-05T12:33:24.946Z,40.43
2018-10-05T12:34:24.760Z,41.97
2018-10-05T12:35:24.643Z,41.39
2018-10-05T12:36:24.524Z,42.84
2018-10-05T12:37:24.407Z,41.38
2018-10-05T12:38:24.286Z,42.24
2018-10-05T12:39:24.169Z,43.90
2018-10-05T12:40:24.051Z,42.24
2018-10-05T12:41:23.928Z,43.88
2018-10-05T12:42:23.820Z,43.78
2018-10-05T12:43:23.693Z,43.88
2018-10-05T12:44:23.579Z,44.45
2018-10-05T12:45:23.454Z,44.45
2018-10-05T12:46:23.339Z,44.93
2018-10-05T12:47:23.217Z,46.19
2018-10-05T12:48:23.098Z,46.88
2018-10-05T12:49:22.979Z,46.50
2018-10-05T12:50:22.861Z,46.50
2018-10-05T12:51:22.741Z,45.73